KJC2136 UUEE-LTFM
Flight info
| Callsign | KJC2136 |
|---|---|
| Flight time | N/A |
| Altitude | 35000 |
| Route | N877F350 EMGAS T828 EKTUT N72 UMSIS N166 OGURA G247 BALEG DCT KUTON/F360N871 G900 ODIRA UW96 SIN UW90 DEVMU UL852 EVPIM UT304 LUUPU UT310 NUGBA |
| Aircraft | T154/M-DGLOW/S |
Departure
| Time | 2026-05-01 12:17 |
|---|---|
| Airport | Sheremetyevo International Airport (UUEE) |
Arrival
| Time | N/A |
|---|---|
| Airport | İstanbul Airport (LTFM) |
| Time | Latitude | Longitude | Altitude | Speed | Heading |
|---|---|---|---|---|---|
| 2026-05-01 10:52 | 55.97705 | 37.41076 | 641 ft | 0 kts | 47° |
| 2026-05-01 11:52 | 55.97700 | 37.41068 | 641 ft | 2 kts | 44° |
| 2026-05-01 11:52 | 55.97690 | 37.41049 | 641 ft | 2 kts | 47° |
| 2026-05-01 11:53 | 55.97680 | 37.41029 | 641 ft | 2 kts | 48° |
| 2026-05-01 11:53 | 55.97670 | 37.41009 | 641 ft | 2 kts | 47° |
| 2026-05-01 11:53 | 55.97660 | 37.40989 | 641 ft | 2 kts | 47° |
| 2026-05-01 11:53 | 55.97650 | 37.40969 | 641 ft | 2 kts | 47° |
| 2026-05-01 11:54 | 55.97639 | 37.40950 | 641 ft | 2 kts | 47° |
| 2026-05-01 11:54 | 55.97630 | 37.40930 | 641 ft | 2 kts | 48° |
| 2026-05-01 11:54 | 55.97621 | 37.40908 | 641 ft | 2 kts | 61° |
| 2026-05-01 11:54 | 55.97614 | 37.40884 | 641 ft | 2 kts | 69° |
| 2026-05-01 11:55 | 55.97610 | 37.40858 | 641 ft | 2 kts | 76° |
| 2026-05-01 11:55 | 55.97608 | 37.40841 | 641 ft | 0 kts | 75° |
| 2026-05-01 12:09 | 55.97610 | 37.40860 | 641 ft | 4 kts | 75° |
| 2026-05-01 12:09 | 55.97624 | 37.40949 | 641 ft | 7 kts | 73° |
| 2026-05-01 12:09 | 55.97638 | 37.41042 | 641 ft | 8 kts | 82° |
| 2026-05-01 12:10 | 55.97615 | 37.41128 | 641 ft | 8 kts | 154° |
| 2026-05-01 12:10 | 55.97549 | 37.41275 | 641 ft | 9 kts | 76° |
| 2026-05-01 12:10 | 55.97567 | 37.41399 | 641 ft | 10 kts | 75° |
| 2026-05-01 12:11 | 55.97609 | 37.41679 | 641 ft | 13 kts | 75° |
| 2026-05-01 12:11 | 55.97634 | 37.41842 | 641 ft | 13 kts | 73° |
| 2026-05-01 12:11 | 55.97660 | 37.42013 | 641 ft | 14 kts | 75° |
| 2026-05-01 12:12 | 55.97684 | 37.42194 | 641 ft | 15 kts | 76° |
| 2026-05-01 12:12 | 55.97713 | 37.42384 | 641 ft | 16 kts | 74° |
| 2026-05-01 12:12 | 55.97744 | 37.42580 | 641 ft | 16 kts | 74° |
| 2026-05-01 12:12 | 55.97773 | 37.42777 | 641 ft | 16 kts | 75° |
| 2026-05-01 12:13 | 55.97802 | 37.42975 | 641 ft | 16 kts | 75° |
| 2026-05-01 12:13 | 55.97834 | 37.43178 | 641 ft | 16 kts | 75° |
| 2026-05-01 12:13 | 55.97863 | 37.43378 | 641 ft | 16 kts | 75° |
| 2026-05-01 12:13 | 55.97893 | 37.43581 | 641 ft | 17 kts | 75° |
| 2026-05-01 12:14 | 55.97922 | 37.43775 | 641 ft | 15 kts | 75° |
| 2026-05-01 12:14 | 55.97948 | 37.43951 | 641 ft | 11 kts | 75° |
| 2026-05-01 12:14 | 55.97938 | 37.44028 | 641 ft | 6 kts | 157° |
| 2026-05-01 12:14 | 55.97892 | 37.44051 | 641 ft | 7 kts | 165° |
| 2026-05-01 12:15 | 55.97837 | 37.44076 | 641 ft | 8 kts | 165° |
| 2026-05-01 12:15 | 55.97787 | 37.44043 | 641 ft | 8 kts | 240° |
| 2026-05-01 12:15 | 55.97774 | 37.43977 | 641 ft | 1 kts | 255° |
| 2026-05-01 12:15 | 55.97774 | 37.43976 | 641 ft | 0 kts | 255° |
| 2026-05-01 12:16 | 55.97773 | 37.43970 | 641 ft | 5 kts | 255° |
| 2026-05-01 12:17 | 55.97715 | 37.43577 | 641 ft | 66 kts | 255° |
| 2026-05-01 12:17 | 55.97534 | 37.42368 | 642 ft | 131 kts | 255° |
| 2026-05-01 12:17 | 55.97251 | 37.40481 | 740 ft | 176 kts | 255° |
| 2026-05-01 12:17 | 55.96919 | 37.38394 | 1391 ft | 177 kts | 253° |
| 2026-05-01 12:18 | 55.96537 | 37.36315 | 2011 ft | 180 kts | 249° |
| 2026-05-01 12:18 | 55.95964 | 37.34286 | 2504 ft | 185 kts | 236° |
| 2026-05-01 12:18 | 55.95200 | 37.32452 | 2989 ft | 184 kts | 232° |
| 2026-05-01 12:18 | 55.94400 | 37.30647 | 3440 ft | 188 kts | 232° |
| 2026-05-01 12:19 | 55.93574 | 37.28749 | 3841 ft | 201 kts | 232° |
| 2026-05-01 12:19 | 55.92690 | 37.26671 | 4191 ft | 223 kts | 233° |
| 2026-05-01 12:19 | 55.91736 | 37.24365 | 4692 ft | 241 kts | 234° |
| 2026-05-01 12:19 | 55.90700 | 37.21848 | 5262 ft | 258 kts | 233° |
| 2026-05-01 12:20 | 55.89637 | 37.19298 | 6106 ft | 261 kts | 233° |
| 2026-05-01 12:20 | 55.88560 | 37.16642 | 6908 ft | 267 kts | 238° |
| 2026-05-01 12:20 | 55.87720 | 37.13726 | 7788 ft | 267 kts | 248° |
| 2026-05-01 12:20 | 55.87157 | 37.10533 | 8446 ft | 271 kts | 257° |
| 2026-05-01 12:21 | 55.86913 | 37.07192 | 9139 ft | 274 kts | 270° |
| 2026-05-01 12:21 | 55.87118 | 37.03823 | 9837 ft | 277 kts | 282° |
| 2026-05-01 12:21 | 55.87551 | 37.00480 | 10495 ft | 283 kts | 283° |
| 2026-05-01 12:21 | 55.88021 | 36.97006 | 11022 ft | 294 kts | 283° |
| 2026-05-01 12:22 | 55.88506 | 36.93377 | 11517 ft | 306 kts | 283° |
| 2026-05-01 12:22 | 55.89033 | 36.89622 | 12052 ft | 316 kts | 285° |
| 2026-05-01 12:22 | 55.89623 | 36.85780 | 12551 ft | 327 kts | 285° |
| 2026-05-01 12:22 | 55.90239 | 36.81874 | 13053 ft | 337 kts | 286° |
| 2026-05-01 12:23 | 55.90892 | 36.77777 | 13616 ft | 346 kts | 285° |
| 2026-05-01 12:23 | 55.91219 | 36.73460 | 14223 ft | 353 kts | 268° |
| 2026-05-01 12:23 | 55.90738 | 36.69192 | 14872 ft | 357 kts | 249° |
| 2026-05-01 12:23 | 55.89881 | 36.65000 | 15586 ft | 360 kts | 254° |
| 2026-05-01 12:24 | 55.89188 | 36.60678 | 16231 ft | 365 kts | 255° |
| 2026-05-01 12:24 | 55.88504 | 36.56382 | 16936 ft | 367 kts | 251° |
| 2026-05-01 12:24 | 55.87303 | 36.52329 | 17635 ft | 369 kts | 232° |
| 2026-05-01 12:24 | 55.85460 | 36.49232 | 18376 ft | 370 kts | 213° |
| 2026-05-01 12:25 | 55.83116 | 36.47317 | 19060 ft | 372 kts | 195° |
| 2026-05-01 12:25 | 55.77918 | 36.47427 | 19975 ft | 390 kts | 169° |
| 2026-05-01 12:25 | 55.75245 | 36.48632 | 20529 ft | 395 kts | 158° |
| 2026-05-01 12:26 | 55.72827 | 36.51002 | 21116 ft | 401 kts | 145° |
| 2026-05-01 12:26 | 55.68263 | 36.56768 | 22358 ft | 408 kts | 146° |
| 2026-05-01 12:26 | 55.65880 | 36.59543 | 22970 ft | 412 kts | 148° |
| 2026-05-01 12:27 | 55.63443 | 36.62262 | 23569 ft | 416 kts | 148° |
| 2026-05-01 12:27 | 55.59059 | 36.68892 | 24729 ft | 423 kts | 124° |
| 2026-05-01 12:28 | 55.56216 | 36.78182 | 25859 ft | 431 kts | 118° |
| 2026-05-01 12:28 | 55.54766 | 36.82833 | 26391 ft | 435 kts | 120° |
| 2026-05-01 12:28 | 55.51672 | 36.92036 | 27499 ft | 443 kts | 121° |
| 2026-05-01 12:29 | 55.50059 | 36.96688 | 28042 ft | 446 kts | 121° |
| 2026-05-01 12:29 | 55.48426 | 37.01367 | 28573 ft | 450 kts | 122° |
| 2026-05-01 12:29 | 55.45088 | 37.10884 | 29593 ft | 457 kts | 122° |
| 2026-05-01 12:30 | 55.40711 | 37.18954 | 30505 ft | 463 kts | 148° |
| 2026-05-01 12:30 | 55.37829 | 37.21538 | 30895 ft | 468 kts | 155° |
| 2026-05-01 12:30 | 55.34876 | 37.23961 | 31408 ft | 467 kts | 154° |
| 2026-05-01 12:31 | 55.32013 | 37.26479 | 31980 ft | 465 kts | 152° |
| 2026-05-01 12:31 | 55.29135 | 37.29172 | 32438 ft | 466 kts | 151° |
| 2026-05-01 12:31 | 55.26315 | 37.31901 | 32926 ft | 465 kts | 150° |
| 2026-05-01 12:31 | 55.23507 | 37.34654 | 33386 ft | 464 kts | 150° |
| 2026-05-01 12:32 | 55.20704 | 37.37413 | 33832 ft | 463 kts | 150° |
| 2026-05-01 12:32 | 55.15083 | 37.43074 | 34429 ft | 467 kts | 149° |
| 2026-05-01 12:32 | 55.12275 | 37.45908 | 34665 ft | 469 kts | 149° |
| 2026-05-01 12:33 | 55.09448 | 37.48753 | 34800 ft | 472 kts | 149° |
| 2026-05-01 12:33 | 55.06581 | 37.51628 | 34857 ft | 473 kts | 149° |
| 2026-05-01 12:33 | 55.00820 | 37.56918 | 34867 ft | 470 kts | 155° |
| 2026-05-01 12:34 | 54.94863 | 37.61689 | 34876 ft | 470 kts | 154° |
| 2026-05-01 12:34 | 54.88866 | 37.66221 | 34959 ft | 470 kts | 159° |
| 2026-05-01 12:35 | 54.82724 | 37.70446 | 35073 ft | 470 kts | 158° |
| 2026-05-01 12:35 | 54.76603 | 37.74737 | 35175 ft | 470 kts | 158° |
| 2026-05-01 12:36 | 54.70578 | 37.78981 | 35261 ft | 470 kts | 158° |
| 2026-05-01 12:36 | 54.64434 | 37.83046 | 35304 ft | 470 kts | 166° |
| 2026-05-01 12:37 | 54.61200 | 37.83801 | 35321 ft | 469 kts | 179° |
| 2026-05-01 12:37 | 54.57937 | 37.83720 | 35257 ft | 471 kts | 181° |
| 2026-05-01 12:37 | 54.51403 | 37.83645 | 35260 ft | 473 kts | 179° |
| 2026-05-01 12:38 | 54.44836 | 37.84343 | 35313 ft | 470 kts | 167° |
| 2026-05-01 12:38 | 54.41801 | 37.86174 | 35310 ft | 468 kts | 153° |
| 2026-05-01 12:38 | 54.39023 | 37.89099 | 35284 ft | 469 kts | 146° |
| 2026-05-01 12:39 | 54.33511 | 37.95121 | 35264 ft | 470 kts | 149° |
| 2026-05-01 12:39 | 54.27862 | 38.00610 | 35247 ft | 471 kts | 151° |
| 2026-05-01 12:40 | 54.22099 | 38.05995 | 35244 ft | 471 kts | 151° |
| 2026-05-01 12:40 | 54.16352 | 38.11321 | 35251 ft | 471 kts | 151° |
| 2026-05-01 12:41 | 54.10582 | 38.16650 | 35249 ft | 470 kts | 151° |
| 2026-05-01 12:41 | 54.04830 | 38.21946 | 35249 ft | 469 kts | 151° |
| 2026-05-01 12:42 | 53.99122 | 38.27186 | 35250 ft | 468 kts | 151° |
| 2026-05-01 12:42 | 53.93414 | 38.32408 | 35256 ft | 468 kts | 151° |
| 2026-05-01 12:43 | 53.87630 | 38.37677 | 35234 ft | 468 kts | 152° |
| 2026-05-01 12:43 | 53.81903 | 38.42857 | 35249 ft | 468 kts | 151° |
| 2026-05-01 12:44 | 53.76179 | 38.48039 | 35249 ft | 467 kts | 151° |
| 2026-05-01 12:44 | 53.70110 | 38.51747 | 35310 ft | 464 kts | 170° |
| 2026-05-01 12:45 | 53.63720 | 38.53360 | 35263 ft | 466 kts | 170° |
| 2026-05-01 12:45 | 53.57340 | 38.55272 | 35250 ft | 466 kts | 169° |
| 2026-05-01 12:46 | 53.51014 | 38.57317 | 35251 ft | 466 kts | 168° |
| 2026-05-01 12:46 | 53.44633 | 38.59404 | 35251 ft | 466 kts | 168° |
| 2026-05-01 12:47 | 53.38305 | 38.61469 | 35251 ft | 466 kts | 168° |
| 2026-05-01 12:47 | 53.31934 | 38.63541 | 35250 ft | 466 kts | 168° |
| 2026-05-01 12:48 | 53.25576 | 38.65606 | 35248 ft | 466 kts | 169° |
| 2026-05-01 12:48 | 53.19193 | 38.67699 | 35247 ft | 466 kts | 169° |
| 2026-05-01 12:49 | 53.12817 | 38.69763 | 35252 ft | 466 kts | 169° |
| 2026-05-01 12:49 | 53.06459 | 38.71807 | 35253 ft | 466 kts | 169° |
| 2026-05-01 12:50 | 53.00095 | 38.73845 | 35251 ft | 466 kts | 169° |
| 2026-05-01 12:50 | 52.93742 | 38.75874 | 35249 ft | 466 kts | 169° |
| 2026-05-01 12:51 | 52.87390 | 38.77893 | 35232 ft | 467 kts | 169° |
| 2026-05-01 12:52 | 52.77747 | 38.80941 | 35247 ft | 466 kts | 169° |
| 2026-05-01 12:52 | 52.68136 | 38.83975 | 35247 ft | 467 kts | 169° |
| 2026-05-01 12:53 | 52.58589 | 38.86976 | 35254 ft | 467 kts | 169° |
| 2026-05-01 12:54 | 52.52153 | 38.88992 | 35252 ft | 467 kts | 169° |
| 2026-05-01 12:54 | 52.42587 | 38.91976 | 35248 ft | 467 kts | 169° |
| 2026-05-01 12:55 | 52.36353 | 38.94856 | 35323 ft | 463 kts | 152° |
| 2026-05-01 12:55 | 52.33670 | 38.97751 | 35300 ft | 463 kts | 143° |
| 2026-05-01 12:56 | 52.28520 | 39.04036 | 35262 ft | 465 kts | 144° |
| 2026-05-01 12:56 | 52.23199 | 39.09959 | 35255 ft | 466 kts | 146° |
| 2026-05-01 12:57 | 52.17779 | 39.15775 | 35254 ft | 466 kts | 147° |
| 2026-05-01 12:57 | 52.09663 | 39.24410 | 35251 ft | 467 kts | 147° |
| 2026-05-01 12:58 | 52.04210 | 39.30183 | 35253 ft | 467 kts | 147° |
| 2026-05-01 12:59 | 51.96041 | 39.38802 | 35248 ft | 467 kts | 147° |
| 2026-05-01 12:59 | 51.87873 | 39.47375 | 35230 ft | 468 kts | 147° |
| 2026-05-01 13:00 | 51.79690 | 39.55897 | 35250 ft | 467 kts | 147° |
| 2026-05-01 13:01 | 51.71420 | 39.64148 | 35303 ft | 465 kts | 156° |
| 2026-05-01 13:02 | 51.62067 | 39.68886 | 35257 ft | 467 kts | 163° |
| 2026-05-01 13:07 | 50.94268 | 40.04974 | 35247 ft | 469 kts | 161° |
| 2026-05-01 13:08 | 50.88066 | 40.08226 | 35223 ft | 469 kts | 161° |
| 2026-05-01 13:08 | 50.81834 | 40.11473 | 35244 ft | 469 kts | 161° |
| 2026-05-01 13:09 | 50.75655 | 40.14695 | 35244 ft | 469 kts | 161° |
| 2026-05-01 13:09 | 50.69484 | 40.17907 | 35248 ft | 469 kts | 161° |
| 2026-05-01 13:10 | 50.63399 | 40.21066 | 35251 ft | 469 kts | 161° |
| 2026-05-01 13:10 | 50.57180 | 40.24287 | 35252 ft | 469 kts | 161° |
| 2026-05-01 13:11 | 50.51008 | 40.27474 | 35254 ft | 469 kts | 161° |
| 2026-05-01 13:11 | 50.44829 | 40.30656 | 35253 ft | 469 kts | 161° |
| 2026-05-01 13:12 | 50.38646 | 40.33831 | 35246 ft | 469 kts | 161° |
| 2026-05-01 13:12 | 50.32422 | 40.37019 | 35247 ft | 469 kts | 161° |
| 2026-05-01 13:13 | 50.26235 | 40.40178 | 35252 ft | 469 kts | 161° |
| 2026-05-01 13:13 | 50.20059 | 40.43324 | 35249 ft | 469 kts | 161° |
| 2026-05-01 13:14 | 50.13869 | 40.46468 | 35247 ft | 470 kts | 161° |
| 2026-05-01 13:14 | 50.07659 | 40.49613 | 35244 ft | 470 kts | 161° |
| 2026-05-01 13:15 | 50.01451 | 40.52743 | 35251 ft | 470 kts | 161° |
| 2026-05-01 13:15 | 49.95236 | 40.55862 | 35171 ft | 471 kts | 161° |
| 2026-05-01 13:16 | 49.89023 | 40.58973 | 35151 ft | 472 kts | 162° |
| 2026-05-01 13:16 | 49.82718 | 40.62106 | 35163 ft | 471 kts | 162° |
| 2026-05-01 13:17 | 49.70251 | 40.68326 | 35161 ft | 469 kts | 162° |
| 2026-05-01 13:18 | 49.60882 | 40.71948 | 35236 ft | 463 kts | 180° |
| 2026-05-01 13:18 | 49.54402 | 40.71321 | 35166 ft | 465 kts | 184° |
| 2026-05-01 13:19 | 49.47954 | 40.70889 | 35160 ft | 467 kts | 182° |
| 2026-05-01 13:20 | 49.38240 | 40.70560 | 35160 ft | 468 kts | 181° |
| 2026-05-01 13:20 | 49.31724 | 40.70383 | 35160 ft | 467 kts | 181° |
| 2026-05-01 13:21 | 49.21999 | 40.70133 | 35165 ft | 467 kts | 181° |
| 2026-05-01 13:21 | 49.15502 | 40.69964 | 35165 ft | 467 kts | 181° |
| 2026-05-01 13:22 | 49.09012 | 40.69795 | 35167 ft | 467 kts | 181° |
| 2026-05-01 13:22 | 49.02542 | 40.69627 | 35163 ft | 468 kts | 181° |
| 2026-05-01 13:23 | 48.96064 | 40.69459 | 35162 ft | 468 kts | 181° |
| 2026-05-01 13:23 | 48.89551 | 40.69107 | 35212 ft | 466 kts | 188° |
| 2026-05-01 13:24 | 48.83162 | 40.67049 | 35159 ft | 467 kts | 193° |
| 2026-05-01 13:25 | 48.73637 | 40.64070 | 35160 ft | 467 kts | 191° |
| 2026-05-01 13:25 | 48.67280 | 40.62210 | 35164 ft | 467 kts | 191° |
| 2026-05-01 13:26 | 48.60897 | 40.60360 | 35158 ft | 467 kts | 191° |
| 2026-05-01 13:26 | 48.54527 | 40.58518 | 35160 ft | 466 kts | 191° |
| 2026-05-01 13:27 | 48.48105 | 40.56666 | 35161 ft | 466 kts | 191° |
| 2026-05-01 13:27 | 48.38473 | 40.53912 | 35156 ft | 466 kts | 191° |
| 2026-05-01 13:28 | 48.28919 | 40.51202 | 35162 ft | 466 kts | 191° |
| 2026-05-01 13:29 | 48.16149 | 40.47595 | 35167 ft | 466 kts | 191° |
| 2026-05-01 13:31 | 47.97080 | 40.42241 | 35162 ft | 467 kts | 191° |
| 2026-05-01 13:32 | 47.81054 | 40.37786 | 35155 ft | 467 kts | 190° |
| 2026-05-01 13:33 | 47.71426 | 40.38390 | 35167 ft | 465 kts | 174° |
| 2026-05-01 13:33 | 47.65003 | 40.39272 | 35164 ft | 466 kts | 176° |
| 2026-05-01 13:34 | 47.52094 | 40.40684 | 35160 ft | 467 kts | 176° |
| 2026-05-01 13:35 | 47.42382 | 40.41714 | 35164 ft | 467 kts | 176° |
| 2026-05-01 13:36 | 47.32690 | 40.42738 | 35163 ft | 467 kts | 176° |
| 2026-05-01 13:36 | 47.23019 | 40.43757 | 35157 ft | 467 kts | 176° |
| 2026-05-01 13:37 | 47.16519 | 40.44439 | 35162 ft | 467 kts | 176° |
| 2026-05-01 13:37 | 47.10085 | 40.44027 | 35226 ft | 464 kts | 196° |
| 2026-05-01 13:38 | 47.04436 | 40.39688 | 35194 ft | 464 kts | 216° |
| 2026-05-01 13:38 | 47.01773 | 40.36995 | 35173 ft | 464 kts | 213° |
| 2026-05-01 13:39 | 46.96209 | 40.32086 | 35171 ft | 465 kts | 209° |
| 2026-05-01 13:39 | 46.90528 | 40.27519 | 35165 ft | 466 kts | 208° |
| 2026-05-01 13:40 | 46.84729 | 40.22983 | 35166 ft | 467 kts | 208° |
| 2026-05-01 13:40 | 46.79002 | 40.18519 | 35159 ft | 467 kts | 208° |
| 2026-05-01 13:41 | 46.73248 | 40.14036 | 35160 ft | 467 kts | 208° |
| 2026-05-01 13:41 | 46.67542 | 40.09597 | 35160 ft | 468 kts | 208° |
| 2026-05-01 13:42 | 46.61801 | 40.05143 | 35158 ft | 468 kts | 208° |
| 2026-05-01 13:42 | 46.56071 | 40.00707 | 35160 ft | 468 kts | 208° |
| 2026-05-01 13:43 | 46.50309 | 39.96258 | 35159 ft | 468 kts | 208° |
| 2026-05-01 13:43 | 46.44601 | 39.91861 | 35164 ft | 468 kts | 208° |
| 2026-05-01 13:44 | 46.38837 | 39.87431 | 35155 ft | 468 kts | 208° |
| 2026-05-01 13:44 | 46.33093 | 39.83025 | 35137 ft | 469 kts | 208° |
| 2026-05-01 13:45 | 46.27310 | 39.78606 | 35131 ft | 469 kts | 208° |
| 2026-05-01 13:45 | 46.21582 | 39.74236 | 35130 ft | 469 kts | 208° |
| 2026-05-01 13:46 | 46.15817 | 39.69848 | 35130 ft | 469 kts | 208° |
| 2026-05-01 13:46 | 46.10044 | 39.65464 | 35130 ft | 469 kts | 208° |
| 2026-05-01 13:47 | 46.04274 | 39.61093 | 35133 ft | 469 kts | 208° |
| 2026-05-01 13:47 | 45.98469 | 39.56706 | 35131 ft | 469 kts | 208° |
| 2026-05-01 13:48 | 45.92684 | 39.52345 | 35134 ft | 469 kts | 208° |
| 2026-05-01 13:48 | 45.86924 | 39.48021 | 35126 ft | 469 kts | 208° |
| 2026-05-01 13:49 | 45.81110 | 39.43678 | 35135 ft | 469 kts | 208° |
| 2026-05-01 13:49 | 45.75296 | 39.39331 | 35138 ft | 469 kts | 208° |
| 2026-05-01 13:50 | 45.69498 | 39.34999 | 35137 ft | 469 kts | 208° |
| 2026-05-01 13:50 | 45.63707 | 39.30661 | 35137 ft | 469 kts | 207° |
| 2026-05-01 13:51 | 45.57879 | 39.26435 | 35132 ft | 469 kts | 206° |
| 2026-05-01 13:51 | 45.52109 | 39.22277 | 35130 ft | 468 kts | 206° |
| 2026-05-01 13:52 | 45.46274 | 39.18074 | 35133 ft | 468 kts | 206° |
| 2026-05-01 13:52 | 45.40485 | 39.13912 | 35130 ft | 468 kts | 206° |
| 2026-05-01 13:53 | 45.34703 | 39.09764 | 35129 ft | 468 kts | 206° |
| 2026-05-01 13:53 | 45.25976 | 39.03521 | 35129 ft | 468 kts | 206° |
| 2026-05-01 13:54 | 45.20206 | 38.99406 | 35132 ft | 468 kts | 206° |
| 2026-05-01 13:54 | 45.14371 | 38.95253 | 35128 ft | 468 kts | 206° |
| 2026-05-01 13:55 | 45.08585 | 38.91145 | 35130 ft | 468 kts | 206° |
| 2026-05-01 13:55 | 45.02741 | 38.87005 | 35131 ft | 468 kts | 206° |
| 2026-05-01 13:56 | 44.96912 | 38.82885 | 35128 ft | 468 kts | 206° |
| 2026-05-01 13:56 | 44.91114 | 38.78796 | 35127 ft | 468 kts | 206° |
| 2026-05-01 13:57 | 44.85277 | 38.74705 | 35143 ft | 467 kts | 206° |
| 2026-05-01 13:57 | 44.79446 | 38.70623 | 35134 ft | 467 kts | 206° |
| 2026-05-01 13:58 | 44.73634 | 38.66554 | 35133 ft | 467 kts | 206° |
| 2026-05-01 13:58 | 44.67807 | 38.62483 | 35134 ft | 467 kts | 206° |
| 2026-05-01 13:59 | 44.62022 | 38.58448 | 35138 ft | 466 kts | 206° |
| 2026-05-01 13:59 | 44.56190 | 38.54384 | 35137 ft | 466 kts | 206° |
| 2026-05-01 14:00 | 44.50385 | 38.50345 | 35135 ft | 466 kts | 206° |
| 2026-05-01 14:00 | 44.44540 | 38.46293 | 35132 ft | 466 kts | 206° |
| 2026-05-01 14:01 | 44.38721 | 38.42274 | 35130 ft | 466 kts | 206° |
| 2026-05-01 14:01 | 44.33073 | 38.37857 | 35158 ft | 465 kts | 216° |
| 2026-05-01 14:02 | 44.27839 | 38.32492 | 35104 ft | 466 kts | 216° |
| 2026-05-01 14:02 | 44.22512 | 38.27335 | 35162 ft | 465 kts | 213° |
| 2026-05-01 14:03 | 44.19815 | 38.24862 | 35396 ft | 465 kts | 213° |
| 2026-05-01 14:03 | 44.17094 | 38.22374 | 35645 ft | 469 kts | 213° |
| 2026-05-01 14:03 | 44.14382 | 38.19892 | 35918 ft | 470 kts | 213° |
| 2026-05-01 14:03 | 44.11669 | 38.17408 | 36133 ft | 468 kts | 213° |
| 2026-05-01 14:04 | 44.06218 | 38.12418 | 36096 ft | 468 kts | 213° |
| 2026-05-01 14:04 | 44.00809 | 38.07474 | 36095 ft | 467 kts | 213° |
| 2026-05-01 14:05 | 43.95425 | 38.02533 | 36101 ft | 466 kts | 213° |
| 2026-05-01 14:05 | 43.90047 | 37.97609 | 36092 ft | 466 kts | 213° |
| 2026-05-01 14:06 | 43.84630 | 37.92686 | 36098 ft | 466 kts | 213° |
| 2026-05-01 14:06 | 43.79248 | 37.87796 | 36094 ft | 466 kts | 213° |
| 2026-05-01 14:07 | 43.73846 | 37.82887 | 36095 ft | 466 kts | 213° |
| 2026-05-01 14:08 | 43.65738 | 37.75534 | 36093 ft | 466 kts | 213° |
| 2026-05-01 14:08 | 43.60346 | 37.70658 | 36093 ft | 466 kts | 213° |
| 2026-05-01 14:09 | 43.54928 | 37.65770 | 36093 ft | 466 kts | 213° |
| 2026-05-01 14:09 | 43.49531 | 37.60912 | 36095 ft | 467 kts | 213° |
| 2026-05-01 14:10 | 43.44093 | 37.56033 | 36096 ft | 467 kts | 213° |
| 2026-05-01 14:10 | 43.38689 | 37.51195 | 36096 ft | 467 kts | 213° |
| 2026-05-01 14:11 | 43.33219 | 37.46309 | 36092 ft | 468 kts | 213° |
| 2026-05-01 14:11 | 43.25075 | 37.39054 | 36099 ft | 468 kts | 213° |
| 2026-05-01 14:12 | 43.19604 | 37.34193 | 36090 ft | 468 kts | 213° |
| 2026-05-01 14:12 | 43.14186 | 37.29358 | 36096 ft | 468 kts | 213° |
| 2026-05-01 14:13 | 43.08750 | 37.24537 | 36101 ft | 468 kts | 212° |
| 2026-05-01 14:13 | 43.03273 | 37.19717 | 36102 ft | 468 kts | 212° |
| 2026-05-01 14:14 | 42.97811 | 37.14927 | 36100 ft | 468 kts | 212° |
| 2026-05-01 14:14 | 42.92343 | 37.10141 | 36100 ft | 468 kts | 212° |
| 2026-05-01 14:15 | 42.86869 | 37.05371 | 36086 ft | 468 kts | 212° |
| 2026-05-01 14:15 | 42.81372 | 37.00600 | 36090 ft | 468 kts | 212° |
| 2026-05-01 14:16 | 42.75904 | 36.95850 | 36096 ft | 468 kts | 212° |
| 2026-05-01 14:16 | 42.70555 | 36.90860 | 36163 ft | 466 kts | 223° |
| 2026-05-01 14:17 | 42.68426 | 36.87579 | 36158 ft | 465 kts | 236° |
| 2026-05-01 14:17 | 42.66908 | 36.83700 | 36160 ft | 464 kts | 249° |
| 2026-05-01 14:17 | 42.64722 | 36.75444 | 36116 ft | 466 kts | 248° |
| 2026-05-01 14:18 | 42.62100 | 36.67440 | 36098 ft | 467 kts | 244° |
| 2026-05-01 14:18 | 42.59254 | 36.59524 | 36091 ft | 468 kts | 244° |
| 2026-05-01 14:19 | 42.56368 | 36.51634 | 36095 ft | 468 kts | 244° |
| 2026-05-01 14:19 | 42.53477 | 36.43761 | 36098 ft | 468 kts | 244° |
| 2026-05-01 14:20 | 42.49109 | 36.31899 | 36080 ft | 469 kts | 243° |
| 2026-05-01 14:21 | 42.46218 | 36.24049 | 36097 ft | 469 kts | 243° |
| 2026-05-01 14:21 | 42.43292 | 36.16149 | 36095 ft | 469 kts | 243° |
| 2026-05-01 14:22 | 42.38896 | 36.04332 | 36094 ft | 469 kts | 243° |
| 2026-05-01 14:22 | 42.35966 | 35.96484 | 36097 ft | 469 kts | 243° |
| 2026-05-01 14:23 | 42.33010 | 35.88586 | 36094 ft | 469 kts | 243° |
| 2026-05-01 14:23 | 42.30077 | 35.80774 | 36097 ft | 469 kts | 243° |
| 2026-05-01 14:24 | 42.27120 | 35.72918 | 36096 ft | 469 kts | 243° |
| 2026-05-01 14:24 | 42.24179 | 35.65127 | 36095 ft | 469 kts | 243° |
| 2026-05-01 14:25 | 42.21218 | 35.57303 | 36093 ft | 469 kts | 243° |
| 2026-05-01 14:25 | 42.18245 | 35.49471 | 36094 ft | 468 kts | 243° |
| 2026-05-01 14:26 | 42.13806 | 35.37806 | 36092 ft | 468 kts | 243° |
| 2026-05-01 14:27 | 42.10845 | 35.29984 | 36090 ft | 468 kts | 243° |
| 2026-05-01 14:27 | 42.07904 | 35.22233 | 36092 ft | 468 kts | 243° |
| 2026-05-01 14:28 | 42.03450 | 35.10566 | 36098 ft | 468 kts | 243° |
| 2026-05-01 14:28 | 42.01411 | 35.02343 | 36157 ft | 465 kts | 265° |
| 2026-05-01 14:29 | 42.01357 | 34.93636 | 36097 ft | 466 kts | 269° |
| 2026-05-01 14:30 | 42.00744 | 34.76231 | 36059 ft | 469 kts | 266° |
| 2026-05-01 14:31 | 42.00114 | 34.63173 | 36039 ft | 469 kts | 266° |
| 2026-05-01 14:31 | 41.99678 | 34.54428 | 36038 ft | 469 kts | 266° |
| 2026-05-01 14:32 | 41.99234 | 34.45664 | 36037 ft | 469 kts | 266° |
| 2026-05-01 14:32 | 41.98791 | 34.36978 | 36036 ft | 469 kts | 266° |
| 2026-05-01 14:33 | 41.98335 | 34.28196 | 36037 ft | 469 kts | 265° |
| 2026-05-01 14:33 | 41.97875 | 34.19482 | 36034 ft | 469 kts | 265° |
| 2026-05-01 14:34 | 41.97407 | 34.10780 | 36031 ft | 469 kts | 265° |
| 2026-05-01 14:34 | 41.96932 | 34.02050 | 36034 ft | 469 kts | 265° |
| 2026-05-01 14:35 | 41.96447 | 33.93282 | 36038 ft | 469 kts | 265° |
| 2026-05-01 14:35 | 41.95959 | 33.84565 | 36039 ft | 469 kts | 265° |
| 2026-05-01 14:36 | 41.95463 | 33.75839 | 36035 ft | 469 kts | 265° |
| 2026-05-01 14:36 | 41.94958 | 33.67078 | 36034 ft | 469 kts | 265° |
| 2026-05-01 14:37 | 41.94448 | 33.58366 | 36033 ft | 469 kts | 265° |
| 2026-05-01 14:37 | 41.93928 | 33.49620 | 36036 ft | 469 kts | 265° |
| 2026-05-01 14:38 | 41.93403 | 33.40887 | 36034 ft | 470 kts | 265° |
| 2026-05-01 14:38 | 41.92872 | 33.32157 | 36015 ft | 470 kts | 265° |
| 2026-05-01 14:39 | 41.92336 | 33.23434 | 36032 ft | 470 kts | 265° |
| 2026-05-01 14:39 | 41.91787 | 33.14640 | 36033 ft | 470 kts | 265° |
| 2026-05-01 14:40 | 41.91237 | 33.05943 | 36039 ft | 470 kts | 265° |
| 2026-05-01 14:40 | 41.90678 | 32.97198 | 36012 ft | 471 kts | 265° |
| 2026-05-01 14:41 | 41.90112 | 32.88457 | 36009 ft | 470 kts | 265° |
| 2026-05-01 14:41 | 41.89516 | 32.79683 | 36010 ft | 470 kts | 265° |
| 2026-05-01 14:42 | 41.88916 | 32.70922 | 36009 ft | 470 kts | 265° |
| 2026-05-01 14:42 | 41.88331 | 32.62251 | 36005 ft | 470 kts | 265° |
| 2026-05-01 14:43 | 41.87736 | 32.53476 | 36005 ft | 470 kts | 265° |
| 2026-05-01 14:43 | 41.87307 | 32.44792 | 36068 ft | 466 kts | 274° |
| 2026-05-01 14:43 | 41.87852 | 32.40553 | 36071 ft | 465 kts | 288° |
| 2026-05-01 14:44 | 41.88998 | 32.36497 | 36023 ft | 466 kts | 292° |
| 2026-05-01 14:44 | 41.90535 | 32.28069 | 36014 ft | 466 kts | 278° |
| 2026-05-01 14:44 | 41.90922 | 32.23768 | 36030 ft | 465 kts | 271° |
| 2026-05-01 14:45 | 41.90650 | 32.19445 | 36070 ft | 463 kts | 257° |
| 2026-05-01 14:45 | 41.88636 | 32.11260 | 36010 ft | 465 kts | 251° |
| 2026-05-01 14:46 | 41.86712 | 32.02973 | 36013 ft | 466 kts | 253° |
| 2026-05-01 14:46 | 41.84102 | 31.90514 | 36120 ft | 464 kts | 255° |
| 2026-05-01 14:47 | 41.82369 | 31.82147 | 36219 ft | 463 kts | 255° |
| 2026-05-01 14:48 | 41.79779 | 31.69701 | 36209 ft | 466 kts | 254° |
| 2026-05-01 14:48 | 41.77142 | 31.57147 | 36213 ft | 468 kts | 254° |
| 2026-05-01 14:49 | 41.73603 | 31.40408 | 36212 ft | 469 kts | 254° |
| 2026-05-01 14:50 | 41.70029 | 31.23596 | 36209 ft | 470 kts | 254° |
| 2026-05-01 14:51 | 41.67347 | 31.11028 | 36205 ft | 471 kts | 255° |
| 2026-05-01 14:52 | 41.65778 | 31.02592 | 35338 ft | 465 kts | 256° |
| 2026-05-01 14:52 | 41.65012 | 30.98440 | 34827 ft | 463 kts | 256° |
| 2026-05-01 14:52 | 41.63449 | 30.90138 | 33824 ft | 459 kts | 256° |
| 2026-05-01 14:53 | 41.62664 | 30.86014 | 33316 ft | 458 kts | 256° |
| 2026-05-01 14:53 | 41.61887 | 30.81929 | 32669 ft | 460 kts | 256° |
| 2026-05-01 14:53 | 41.61093 | 30.77773 | 32050 ft | 461 kts | 256° |
| 2026-05-01 14:53 | 41.60300 | 30.73627 | 31402 ft | 462 kts | 256° |
| 2026-05-01 14:54 | 41.59512 | 30.69515 | 30741 ft | 463 kts | 256° |
| 2026-05-01 14:54 | 41.58629 | 30.65370 | 30086 ft | 463 kts | 249° |
| 2026-05-01 14:54 | 41.57236 | 30.61512 | 29494 ft | 461 kts | 240° |
| 2026-05-01 14:54 | 41.55650 | 30.57843 | 29019 ft | 457 kts | 240° |
| 2026-05-01 14:55 | 41.54095 | 30.54214 | 28567 ft | 453 kts | 241° |
| 2026-05-01 14:55 | 41.52569 | 30.50543 | 28059 ft | 450 kts | 242° |
| 2026-05-01 14:55 | 41.51074 | 30.46875 | 27588 ft | 447 kts | 242° |
| 2026-05-01 14:55 | 41.49623 | 30.43280 | 27204 ft | 441 kts | 242° |
| 2026-05-01 14:56 | 41.48177 | 30.39683 | 26799 ft | 436 kts | 242° |
| 2026-05-01 14:56 | 41.46758 | 30.36156 | 26310 ft | 434 kts | 242° |
| 2026-05-01 14:56 | 41.45333 | 30.32607 | 25822 ft | 431 kts | 242° |
| 2026-05-01 14:56 | 41.43915 | 30.29069 | 25374 ft | 427 kts | 242° |
| 2026-05-01 14:57 | 41.42520 | 30.25599 | 24894 ft | 424 kts | 242° |
| 2026-05-01 14:57 | 41.39790 | 30.18830 | 23962 ft | 418 kts | 242° |
| 2026-05-01 14:57 | 41.38431 | 30.15470 | 23483 ft | 415 kts | 242° |
| 2026-05-01 14:58 | 41.37063 | 30.12093 | 23007 ft | 412 kts | 242° |
| 2026-05-01 14:58 | 41.35708 | 30.08751 | 22530 ft | 409 kts | 242° |
| 2026-05-01 14:58 | 41.34370 | 30.05456 | 22052 ft | 406 kts | 242° |
| 2026-05-01 14:58 | 41.33035 | 30.02170 | 21572 ft | 403 kts | 242° |
| 2026-05-01 14:59 | 41.31707 | 29.98908 | 21092 ft | 400 kts | 242° |
| 2026-05-01 14:59 | 41.30399 | 29.95697 | 20614 ft | 397 kts | 242° |
| 2026-05-01 14:59 | 41.29086 | 29.92477 | 20131 ft | 394 kts | 242° |
| 2026-05-01 14:59 | 41.27783 | 29.89286 | 19646 ft | 391 kts | 242° |
| 2026-05-01 15:00 | 41.25216 | 29.83006 | 18682 ft | 385 kts | 242° |
| 2026-05-01 15:00 | 41.23946 | 29.79906 | 18198 ft | 383 kts | 242° |
| 2026-05-01 15:00 | 41.22674 | 29.76803 | 17695 ft | 380 kts | 242° |
| 2026-05-01 15:01 | 41.21426 | 29.73761 | 17217 ft | 377 kts | 242° |
| 2026-05-01 15:01 | 41.20179 | 29.70725 | 16733 ft | 375 kts | 242° |
| 2026-05-01 15:01 | 41.18922 | 29.67669 | 16235 ft | 372 kts | 242° |
| 2026-05-01 15:01 | 41.17692 | 29.64682 | 15751 ft | 369 kts | 242° |
| 2026-05-01 15:02 | 41.16470 | 29.61701 | 15254 ft | 367 kts | 242° |
| 2026-05-01 15:02 | 41.15684 | 29.59729 | 14918 ft | 365 kts | 243° |
| 2026-05-01 15:02 | 41.14182 | 29.55725 | 14230 ft | 363 kts | 244° |
| 2026-05-01 15:02 | 41.13024 | 29.52778 | 13772 ft | 359 kts | 242° |
| 2026-05-01 15:03 | 41.11809 | 29.49936 | 13352 ft | 354 kts | 240° |
| 2026-05-01 15:03 | 41.10622 | 29.47110 | 12969 ft | 348 kts | 242° |
| 2026-05-01 15:03 | 41.09472 | 29.44305 | 12636 ft | 342 kts | 242° |
| 2026-05-01 15:03 | 41.08368 | 29.41569 | 12319 ft | 336 kts | 242° |
| 2026-05-01 15:04 | 41.07293 | 29.38879 | 12073 ft | 328 kts | 242° |
| 2026-05-01 15:04 | 41.06226 | 29.36213 | 11790 ft | 321 kts | 242° |
| 2026-05-01 15:04 | 41.05197 | 29.33635 | 11510 ft | 316 kts | 242° |
| 2026-05-01 15:04 | 41.04195 | 29.31056 | 11258 ft | 310 kts | 243° |
| 2026-05-01 15:05 | 41.03217 | 29.28550 | 11002 ft | 303 kts | 242° |
| 2026-05-01 15:05 | 41.02228 | 29.26118 | 10641 ft | 297 kts | 241° |
| 2026-05-01 15:05 | 41.01247 | 29.23778 | 10237 ft | 291 kts | 240° |
| 2026-05-01 15:05 | 41.00258 | 29.21442 | 9823 ft | 286 kts | 240° |
| 2026-05-01 15:06 | 40.99295 | 29.19202 | 9429 ft | 280 kts | 240° |
| 2026-05-01 15:06 | 40.98327 | 29.16994 | 8995 ft | 276 kts | 239° |
| 2026-05-01 15:06 | 40.97356 | 29.14804 | 8490 ft | 274 kts | 239° |
| 2026-05-01 15:06 | 40.96425 | 29.12642 | 8011 ft | 271 kts | 240° |
| 2026-05-01 15:07 | 40.95528 | 29.10477 | 7570 ft | 266 kts | 240° |
| 2026-05-01 15:07 | 40.94643 | 29.08334 | 7083 ft | 265 kts | 240° |
| 2026-05-01 15:07 | 40.93754 | 29.06208 | 6721 ft | 266 kts | 239° |
| 2026-05-01 15:07 | 40.92852 | 29.04090 | 6466 ft | 263 kts | 239° |
| 2026-05-01 15:08 | 40.91951 | 29.01994 | 6257 ft | 259 kts | 239° |
| 2026-05-01 15:08 | 40.91095 | 28.99930 | 6090 ft | 253 kts | 242° |
| 2026-05-01 15:08 | 40.90400 | 28.97794 | 5825 ft | 253 kts | 249° |
| 2026-05-01 15:08 | 40.89886 | 28.95610 | 5642 ft | 249 kts | 253° |
| 2026-05-01 15:09 | 40.89450 | 28.93409 | 5415 ft | 248 kts | 255° |
| 2026-05-01 15:09 | 40.89035 | 28.91213 | 5284 ft | 245 kts | 254° |
| 2026-05-01 15:09 | 40.88605 | 28.89038 | 5201 ft | 246 kts | 253° |
| 2026-05-01 15:09 | 40.88144 | 28.86852 | 5119 ft | 247 kts | 253° |
| 2026-05-01 15:10 | 40.87712 | 28.84679 | 5175 ft | 242 kts | 260° |
| 2026-05-01 15:10 | 40.88374 | 28.80478 | 5223 ft | 233 kts | 306° |
| 2026-05-01 15:10 | 40.89520 | 28.79011 | 5292 ft | 228 kts | 326° |
| 2026-05-01 15:11 | 40.90810 | 28.77771 | 5209 ft | 235 kts | 325° |
| 2026-05-01 15:11 | 40.93514 | 28.75216 | 5229 ft | 235 kts | 331° |
| 2026-05-01 15:11 | 40.94953 | 28.74246 | 5199 ft | 235 kts | 339° |
| 2026-05-01 15:12 | 40.96500 | 28.73578 | 5151 ft | 233 kts | 351° |
| 2026-05-01 15:12 | 40.99612 | 28.73200 | 5155 ft | 212 kts | 359° |
| 2026-05-01 15:12 | 41.01025 | 28.73126 | 5067 ft | 200 kts | 2° |
| 2026-05-01 15:13 | 41.04910 | 28.73197 | 4488 ft | 171 kts | 5° |
| 2026-05-01 15:14 | 41.07212 | 28.73166 | 4182 ft | 158 kts | 2° |
| 2026-05-01 15:14 | 41.08300 | 28.73118 | 3977 ft | 159 kts | 4° |
| 2026-05-01 15:14 | 41.10543 | 28.73099 | 3545 ft | 165 kts | 4° |
| 2026-05-01 15:15 | 41.12832 | 28.73031 | 3055 ft | 164 kts | 4° |
| 2026-05-01 15:15 | 41.15036 | 28.73009 | 2569 ft | 154 kts | 5° |
| 2026-05-01 15:16 | 41.17120 | 28.72953 | 2159 ft | 146 kts | 5° |
| 2026-05-01 15:16 | 41.19172 | 28.72924 | 1758 ft | 147 kts | 5° |
| 2026-05-01 15:17 | 41.21225 | 28.72872 | 1341 ft | 145 kts | 5° |
| 2026-05-01 15:18 | 41.24112 | 28.72819 | 773 ft | 133 kts | 6° |
| 2026-05-01 15:18 | 41.25040 | 28.72799 | 607 ft | 133 kts | 4° |
| 2026-05-01 15:19 | 41.27770 | 28.72738 | 505 ft | 152 kts | 5° |
| 2026-05-01 15:19 | 41.30271 | 28.72768 | 1470 ft | 193 kts | 5° |
| 2026-05-01 15:19 | 41.31661 | 28.72804 | 1982 ft | 206 kts | 5° |
| 2026-05-01 15:20 | 41.34549 | 28.72541 | 3127 ft | 234 kts | 342° |
| 2026-05-01 15:20 | 41.35902 | 28.71312 | 3622 ft | 235 kts | 315° |
| 2026-05-01 15:20 | 41.36712 | 28.69553 | 4147 ft | 220 kts | 289° |
| 2026-05-01 15:21 | 41.36856 | 28.67545 | 4457 ft | 226 kts | 258° |
| 2026-05-01 15:21 | 41.36271 | 28.65554 | 4814 ft | 236 kts | 232° |
| 2026-05-01 15:21 | 41.35115 | 28.64047 | 5180 ft | 231 kts | 208° |
| 2026-05-01 15:21 | 41.33631 | 28.63375 | 5204 ft | 226 kts | 183° |
| 2026-05-01 15:22 | 41.30531 | 28.63366 | 5346 ft | 218 kts | 179° |
| 2026-05-01 15:22 | 41.29017 | 28.63335 | 5240 ft | 225 kts | 179° |
| 2026-05-01 15:22 | 41.27415 | 28.63285 | 5127 ft | 230 kts | 179° |
| 2026-05-01 15:23 | 41.25822 | 28.63245 | 5096 ft | 230 kts | 179° |
| 2026-05-01 15:23 | 41.24206 | 28.63226 | 4983 ft | 233 kts | 178° |
| 2026-05-01 15:23 | 41.22594 | 28.63181 | 4992 ft | 231 kts | 180° |
| 2026-05-01 15:23 | 41.20982 | 28.63096 | 4949 ft | 230 kts | 180° |
| 2026-05-01 15:24 | 41.19408 | 28.63025 | 4980 ft | 225 kts | 179° |
| 2026-05-01 15:24 | 41.17860 | 28.62995 | 5035 ft | 220 kts | 178° |
| 2026-05-01 15:24 | 41.16318 | 28.63009 | 4982 ft | 221 kts | 177° |
| 2026-05-01 15:24 | 41.14791 | 28.63036 | 5018 ft | 218 kts | 177° |
| 2026-05-01 15:25 | 41.13267 | 28.63084 | 5009 ft | 219 kts | 176° |
| 2026-05-01 15:25 | 41.11759 | 28.63146 | 5053 ft | 218 kts | 175° |
| 2026-05-01 15:25 | 41.10245 | 28.63229 | 5053 ft | 221 kts | 176° |
| 2026-05-01 15:25 | 41.08679 | 28.63285 | 5017 ft | 225 kts | 176° |
| 2026-05-01 15:26 | 41.07123 | 28.63360 | 5020 ft | 227 kts | 174° |
| 2026-05-01 15:26 | 41.05530 | 28.63471 | 4966 ft | 230 kts | 175° |
| 2026-05-01 15:26 | 41.03937 | 28.63543 | 4964 ft | 231 kts | 175° |
| 2026-05-01 15:26 | 41.02327 | 28.63625 | 4969 ft | 232 kts | 175° |
| 2026-05-01 15:27 | 41.00720 | 28.63706 | 5001 ft | 230 kts | 176° |
| 2026-05-01 15:27 | 40.99122 | 28.63727 | 5048 ft | 228 kts | 177° |
| 2026-05-01 15:27 | 40.97535 | 28.63751 | 5026 ft | 229 kts | 177° |
| 2026-05-01 15:28 | 40.94386 | 28.63868 | 5129 ft | 222 kts | 175° |
| 2026-05-01 15:28 | 40.92865 | 28.63957 | 5182 ft | 220 kts | 175° |
| 2026-05-01 15:28 | 40.91320 | 28.64088 | 5132 ft | 223 kts | 173° |
| 2026-05-01 15:29 | 40.88362 | 28.64991 | 5182 ft | 219 kts | 138° |
| 2026-05-01 15:29 | 40.87470 | 28.66583 | 5134 ft | 221 kts | 114° |
| 2026-05-01 15:29 | 40.87417 | 28.70515 | 5046 ft | 229 kts | 58° |
| 2026-05-01 15:30 | 40.90176 | 28.72427 | 5129 ft | 231 kts | 9° |
| 2026-05-01 15:31 | 40.96653 | 28.73372 | 5118 ft | 227 kts | 4° |
| 2026-05-01 15:31 | 40.99768 | 28.73314 | 4884 ft | 215 kts | 1° |
| 2026-05-01 15:32 | 41.02559 | 28.73236 | 4910 ft | 184 kts | 4° |
| 2026-05-01 15:32 | 41.04972 | 28.73278 | 4562 ft | 169 kts | 2° |
| 2026-05-01 15:33 | 41.08450 | 28.73115 | 3902 ft | 162 kts | 4° |
| 2026-05-01 15:34 | 41.11842 | 28.73062 | 3203 ft | 162 kts | 4° |